sensor_id;sensor_type;location;lat;lon;timestamp;P1;durP1;ratioP1;P2;durP2;ratioP2
34212;SDS011;20477;51.390;8.102;2023-05-07T00:01:02;11.35;;;3.60;;
34212;SDS011;20477;51.390;8.102;2023-05-07T00:03:33;8.90;;;3.97;;
34212;SDS011;20477;51.390;8.102;2023-05-07T00:06:01;4.57;;;3.47;;
34212;SDS011;20477;51.390;8.102;2023-05-07T00:08:30;5.68;;;3.40;;
34212;SDS011;20477;51.390;8.102;2023-05-07T00:10:58;4.95;;;3.53;;
34212;SDS011;20477;51.390;8.102;2023-05-07T00:13:27;4.88;;;3.67;;
34212;SDS011;20477;51.390;8.102;2023-05-07T00:15:57;8.57;;;3.70;;
34212;SDS011;20477;51.390;8.102;2023-05-07T00:18:25;4.32;;;3.63;;
34212;SDS011;20477;51.390;8.102;2023-05-07T00:20:55;7.90;;;3.38;;
34212;SDS011;20477;51.390;8.102;2023-05-07T00:23:23;8.55;;;3.60;;
34212;SDS011;20477;51.390;8.102;2023-05-07T00:25:51;6.35;;;3.08;;
34212;SDS011;20477;51.390;8.102;2023-05-07T00:28:20;7.00;;;3.13;;
34212;SDS011;20477;51.390;8.102;2023-05-07T00:30:48;5.07;;;3.75;;
34212;SDS011;20477;51.390;8.102;2023-05-07T00:33:16;5.63;;;3.22;;
34212;SDS011;20477;51.390;8.102;2023-05-07T00:35:44;4.07;;;2.65;;
34212;SDS011;20477;51.390;8.102;2023-05-07T00:38:13;6.57;;;3.42;;
34212;SDS011;20477;51.390;8.102;2023-05-07T00:40:42;6.05;;;3.20;;
34212;SDS011;20477;51.390;8.102;2023-05-07T00:43:10;6.68;;;3.25;;
34212;SDS011;20477;51.390;8.102;2023-05-07T00:45:38;4.43;;;3.20;;
34212;SDS011;20477;51.390;8.102;2023-05-07T00:48:07;4.05;;;2.72;;
34212;SDS011;20477;51.390;8.102;2023-05-07T00:50:35;6.55;;;3.25;;
34212;SDS011;20477;51.390;8.102;2023-05-07T00:53:04;5.25;;;3.33;;
34212;SDS011;20477;51.390;8.102;2023-05-07T00:55:34;7.05;;;3.05;;
34212;SDS011;20477;51.390;8.102;2023-05-07T00:58:03;8.93;;;3.38;;
34212;SDS011;20477;51.390;8.102;2023-05-07T01:00:32;5.40;;;3.03;;
34212;SDS011;20477;51.390;8.102;2023-05-07T01:03:00;6.10;;;3.00;;
34212;SDS011;20477;51.390;8.102;2023-05-07T01:05:28;6.35;;;3.22;;
34212;SDS011;20477;51.390;8.102;2023-05-07T01:07:58;5.03;;;3.75;;
34212;SDS011;20477;51.390;8.102;2023-05-07T01:10:27;4.10;;;2.75;;
34212;SDS011;20477;51.390;8.102;2023-05-07T01:12:58;7.43;;;3.45;;
34212;SDS011;20477;51.390;8.102;2023-05-07T01:15:27;4.13;;;2.85;;
34212;SDS011;20477;51.390;8.102;2023-05-07T01:17:55;5.13;;;3.28;;
34212;SDS011;20477;51.390;8.102;2023-05-07T01:20:24;4.88;;;2.97;;
34212;SDS011;20477;51.390;8.102;2023-05-07T01:22:53;4.75;;;3.00;;
34212;SDS011;20477;51.390;8.102;2023-05-07T01:25:22;6.90;;;3.50;;
34212;SDS011;20477;51.390;8.102;2023-05-07T01:27:51;6.22;;;2.92;;
34212;SDS011;20477;51.390;8.102;2023-05-07T01:30:19;6.97;;;3.38;;
34212;SDS011;20477;51.390;8.102;2023-05-07T01:32:49;5.82;;;3.00;;
34212;SDS011;20477;51.390;8.102;2023-05-07T01:35:21;8.65;;;3.22;;
34212;SDS011;20477;51.390;8.102;2023-05-07T01:37:52;11.33;;;3.13;;
34212;SDS011;20477;51.390;8.102;2023-05-07T01:40:22;7.55;;;3.60;;
34212;SDS011;20477;51.390;8.102;2023-05-07T01:42:50;4.68;;;3.42;;
34212;SDS011;20477;51.390;8.102;2023-05-07T01:45:18;5.57;;;2.80;;
34212;SDS011;20477;51.390;8.102;2023-05-07T01:47:47;4.93;;;3.45;;
34212;SDS011;20477;51.390;8.102;2023-05-07T01:50:15;5.63;;;3.25;;
34212;SDS011;20477;51.390;8.102;2023-05-07T01:52:44;6.00;;;3.05;;
34212;SDS011;20477;51.390;8.102;2023-05-07T01:55:14;4.88;;;3.05;;
34212;SDS011;20477;51.390;8.102;2023-05-07T01:57:42;6.40;;;3.20;;
34212;SDS011;20477;51.390;8.102;2023-05-07T02:00:10;9.40;;;3.50;;
34212;SDS011;20477;51.390;8.102;2023-05-07T02:02:39;9.40;;;3.47;;
34212;SDS011;20477;51.390;8.102;2023-05-07T02:05:08;6.82;;;3.08;;
34212;SDS011;20477;51.390;8.102;2023-05-07T02:07:36;9.02;;;3.20;;
34212;SDS011;20477;51.390;8.102;2023-05-07T02:10:05;5.05;;;2.65;;
34212;SDS011;20477;51.390;8.102;2023-05-07T02:12:35;7.55;;;3.10;;
34212;SDS011;20477;51.390;8.102;2023-05-07T02:15:03;6.82;;;3.72;;
34212;SDS011;20477;51.390;8.102;2023-05-07T02:17:32;7.45;;;3.50;;
34212;SDS011;20477;51.390;8.102;2023-05-07T02:20:01;6.55;;;3.60;;
34212;SDS011;20477;51.390;8.102;2023-05-07T02:22:30;5.03;;;3.20;;
34212;SDS011;20477;51.390;8.102;2023-05-07T02:24:58;5.88;;;3.30;;
34212;SDS011;20477;51.390;8.102;2023-05-07T02:27:26;4.38;;;3.28;;
34212;SDS011;20477;51.390;8.102;2023-05-07T02:29:55;10.18;;;3.38;;
34212;SDS011;20477;51.390;8.102;2023-05-07T02:32:23;5.65;;;3.50;;
34212;SDS011;20477;51.390;8.102;2023-05-07T02:34:52;5.05;;;3.30;;
34212;SDS011;20477;51.390;8.102;2023-05-07T02:37:20;7.85;;;3.53;;
34212;SDS011;20477;51.390;8.102;2023-05-07T02:39:48;4.60;;;3.03;;
34212;SDS011;20477;51.390;8.102;2023-05-07T02:42:16;7.13;;;3.50;;
34212;SDS011;20477;51.390;8.102;2023-05-07T02:44:44;7.78;;;3.38;;
34212;SDS011;20477;51.390;8.102;2023-05-07T02:47:14;5.43;;;3.85;;
34212;SDS011;20477;51.390;8.102;2023-05-07T02:49:42;6.25;;;3.50;;
34212;SDS011;20477;51.390;8.102;2023-05-07T02:52:11;9.95;;;3.65;;
34212;SDS011;20477;51.390;8.102;2023-05-07T02:54:39;4.75;;;3.25;;
34212;SDS011;20477;51.390;8.102;2023-05-07T02:57:07;7.95;;;3.30;;
34212;SDS011;20477;51.390;8.102;2023-05-07T02:59:35;4.82;;;3.05;;
34212;SDS011;20477;51.390;8.102;2023-05-07T03:02:03;6.50;;;3.97;;
34212;SDS011;20477;51.390;8.102;2023-05-07T03:04:33;17.63;;;3.70;;
34212;SDS011;20477;51.390;8.102;2023-05-07T03:07:01;5.60;;;3.67;;
34212;SDS011;20477;51.390;8.102;2023-05-07T03:09:29;5.45;;;3.83;;
34212;SDS011;20477;51.390;8.102;2023-05-07T03:11:57;5.93;;;3.90;;
34212;SDS011;20477;51.390;8.102;2023-05-07T03:14:25;5.32;;;3.80;;
34212;SDS011;20477;51.390;8.102;2023-05-07T03:16:53;5.63;;;3.72;;
34212;SDS011;20477;51.390;8.102;2023-05-07T03:19:22;7.47;;;3.72;;
34212;SDS011;20477;51.390;8.102;2023-05-07T03:21:51;6.97;;;3.80;;
34212;SDS011;20477;51.390;8.102;2023-05-07T03:24:19;5.70;;;4.00;;
34212;SDS011;20477;51.390;8.102;2023-05-07T03:26:48;5.38;;;3.50;;
34212;SDS011;20477;51.390;8.102;2023-05-07T03:29:16;7.85;;;3.50;;
34212;SDS011;20477;51.390;8.102;2023-05-07T03:31:44;6.28;;;3.30;;
34212;SDS011;20477;51.390;8.102;2023-05-07T03:34:12;3.80;;;3.40;;
34212;SDS011;20477;51.390;8.102;2023-05-07T03:36:41;7.10;;;3.35;;
34212;SDS011;20477;51.390;8.102;2023-05-07T03:39:10;4.68;;;3.38;;
34212;SDS011;20477;51.390;8.102;2023-05-07T03:41:38;7.07;;;3.30;;
34212;SDS011;20477;51.390;8.102;2023-05-07T03:44:06;7.55;;;3.78;;
34212;SDS011;20477;51.390;8.102;2023-05-07T03:46:35;8.23;;;4.20;;
34212;SDS011;20477;51.390;8.102;2023-05-07T03:49:03;6.53;;;3.88;;
34212;SDS011;20477;51.390;8.102;2023-05-07T03:51:32;5.95;;;3.95;;
34212;SDS011;20477;51.390;8.102;2023-05-07T03:54:00;5.47;;;3.75;;
34212;SDS011;20477;51.390;8.102;2023-05-07T03:56:29;6.18;;;3.72;;
34212;SDS011;20477;51.390;8.102;2023-05-07T03:58:57;9.90;;;4.43;;
34212;SDS011;20477;51.390;8.102;2023-05-07T04:01:25;7.95;;;3.85;;
34212;SDS011;20477;51.390;8.102;2023-05-07T04:03:53;4.85;;;3.30;;
34212;SDS011;20477;51.390;8.102;2023-05-07T04:06:22;7.20;;;3.85;;
34212;SDS011;20477;51.390;8.102;2023-05-07T04:08:50;9.30;;;3.63;;
34212;SDS011;20477;51.390;8.102;2023-05-07T04:11:18;10.57;;;4.57;;
34212;SDS011;20477;51.390;8.102;2023-05-07T04:13:48;7.63;;;3.58;;
34212;SDS011;20477;51.390;8.102;2023-05-07T04:16:16;6.90;;;3.85;;
34212;SDS011;20477;51.390;8.102;2023-05-07T04:18:44;7.32;;;3.67;;
34212;SDS011;20477;51.390;8.102;2023-05-07T04:21:16;7.03;;;4.22;;
34212;SDS011;20477;51.390;8.102;2023-05-07T04:23:45;10.30;;;3.87;;
34212;SDS011;20477;51.390;8.102;2023-05-07T04:26:13;9.80;;;3.95;;
34212;SDS011;20477;51.390;8.102;2023-05-07T04:28:42;6.63;;;3.83;;
34212;SDS011;20477;51.390;8.102;2023-05-07T04:31:11;8.82;;;4.15;;
34212;SDS011;20477;51.390;8.102;2023-05-07T04:33:39;7.88;;;3.95;;
34212;SDS011;20477;51.390;8.102;2023-05-07T04:36:07;10.50;;;4.10;;
34212;SDS011;20477;51.390;8.102;2023-05-07T04:38:35;6.95;;;4.00;;
34212;SDS011;20477;51.390;8.102;2023-05-07T04:41:05;7.10;;;4.10;;
34212;SDS011;20477;51.390;8.102;2023-05-07T04:43:34;11.85;;;3.50;;
34212;SDS011;20477;51.390;8.102;2023-05-07T04:46:02;4.40;;;3.63;;
34212;SDS011;20477;51.390;8.102;2023-05-07T04:48:31;10.70;;;4.22;;
34212;SDS011;20477;51.390;8.102;2023-05-07T04:50:59;5.90;;;3.63;;
34212;SDS011;20477;51.390;8.102;2023-05-07T04:53:27;6.38;;;4.22;;
34212;SDS011;20477;51.390;8.102;2023-05-07T04:55:56;9.75;;;3.60;;
34212;SDS011;20477;51.390;8.102;2023-05-07T04:58:24;8.52;;;4.10;;
34212;SDS011;20477;51.390;8.102;2023-05-07T05:00:52;8.07;;;4.13;;
34212;SDS011;20477;51.390;8.102;2023-05-07T05:03:20;8.80;;;4.32;;
34212;SDS011;20477;51.390;8.102;2023-05-07T05:05:50;7.18;;;3.40;;
34212;SDS011;20477;51.390;8.102;2023-05-07T05:08:19;6.75;;;3.75;;
34212;SDS011;20477;51.390;8.102;2023-05-07T05:10:47;7.22;;;3.97;;
34212;SDS011;20477;51.390;8.102;2023-05-07T05:13:16;6.50;;;3.63;;
34212;SDS011;20477;51.390;8.102;2023-05-07T05:15:44;6.05;;;4.18;;
34212;SDS011;20477;51.390;8.102;2023-05-07T05:18:13;9.43;;;3.88;;
34212;SDS011;20477;51.390;8.102;2023-05-07T05:20:41;6.32;;;3.78;;
34212;SDS011;20477;51.390;8.102;2023-05-07T05:23:10;4.60;;;3.13;;
34212;SDS011;20477;51.390;8.102;2023-05-07T05:25:38;5.25;;;3.65;;
34212;SDS011;20477;51.390;8.102;2023-05-07T05:28:06;9.73;;;3.60;;
34212;SDS011;20477;51.390;8.102;2023-05-07T05:30:35;4.57;;;3.50;;
34212;SDS011;20477;51.390;8.102;2023-05-07T05:33:04;10.13;;;3.45;;
34212;SDS011;20477;51.390;8.102;2023-05-07T05:35:32;5.28;;;3.25;;
34212;SDS011;20477;51.390;8.102;2023-05-07T05:38:01;6.22;;;3.65;;
34212;SDS011;20477;51.390;8.102;2023-05-07T05:40:31;9.63;;;3.00;;
34212;SDS011;20477;51.390;8.102;2023-05-07T05:42:59;5.10;;;2.95;;
34212;SDS011;20477;51.390;8.102;2023-05-07T05:45:27;6.05;;;2.80;;
34212;SDS011;20477;51.390;8.102;2023-05-07T05:47:55;12.30;;;3.20;;
34212;SDS011;20477;51.390;8.102;2023-05-07T05:50:24;3.58;;;2.78;;
34212;SDS011;20477;51.390;8.102;2023-05-07T05:52:52;6.22;;;2.97;;
34212;SDS011;20477;51.390;8.102;2023-05-07T05:55:21;6.68;;;3.38;;
34212;SDS011;20477;51.390;8.102;2023-05-07T05:57:50;4.07;;;3.05;;
34212;SDS011;20477;51.390;8.102;2023-05-07T06:00:18;5.38;;;3.30;;
34212;SDS011;20477;51.390;8.102;2023-05-07T06:02:48;3.58;;;3.03;;
34212;SDS011;20477;51.390;8.102;2023-05-07T06:05:17;5.18;;;3.15;;
34212;SDS011;20477;51.390;8.102;2023-05-07T06:07:45;6.50;;;3.15;;
34212;SDS011;20477;51.390;8.102;2023-05-07T06:10:13;11.02;;;2.90;;
34212;SDS011;20477;51.390;8.102;2023-05-07T06:12:41;2.95;;;2.60;;
34212;SDS011;20477;51.390;8.102;2023-05-07T06:15:11;3.60;;;3.30;;
34212;SDS011;20477;51.390;8.102;2023-05-07T06:17:39;7.50;;;3.13;;
34212;SDS011;20477;51.390;8.102;2023-05-07T06:20:08;5.90;;;3.10;;
34212;SDS011;20477;51.390;8.102;2023-05-07T06:22:37;3.65;;;2.72;;
34212;SDS011;20477;51.390;8.102;2023-05-07T06:25:05;5.65;;;3.20;;
34212;SDS011;20477;51.390;8.102;2023-05-07T06:27:34;4.30;;;3.35;;
34212;SDS011;20477;51.390;8.102;2023-05-07T06:30:02;7.50;;;3.47;;
34212;SDS011;20477;51.390;8.102;2023-05-07T06:32:33;7.32;;;3.40;;
34212;SDS011;20477;51.390;8.102;2023-05-07T06:35:01;8.95;;;3.35;;
34212;SDS011;20477;51.390;8.102;2023-05-07T06:37:29;6.05;;;2.92;;
34212;SDS011;20477;51.390;8.102;2023-05-07T06:39:57;4.82;;;3.70;;
34212;SDS011;20477;51.390;8.102;2023-05-07T06:42:25;3.88;;;3.28;;
34212;SDS011;20477;51.390;8.102;2023-05-07T06:44:54;8.52;;;3.33;;
34212;SDS011;20477;51.390;8.102;2023-05-07T06:47:22;9.38;;;3.28;;
34212;SDS011;20477;51.390;8.102;2023-05-07T06:49:51;8.27;;;3.58;;
34212;SDS011;20477;51.390;8.102;2023-05-07T06:52:19;5.07;;;3.25;;
34212;SDS011;20477;51.390;8.102;2023-05-07T06:54:47;4.75;;;3.00;;
34212;SDS011;20477;51.390;8.102;2023-05-07T06:57:15;9.07;;;3.03;;
34212;SDS011;20477;51.390;8.102;2023-05-07T06:59:44;5.65;;;3.30;;
34212;SDS011;20477;51.390;8.102;2023-05-07T07:02:12;6.03;;;3.67;;
34212;SDS011;20477;51.390;8.102;2023-05-07T07:04:43;7.03;;;3.08;;
34212;SDS011;20477;51.390;8.102;2023-05-07T07:07:13;4.95;;;3.75;;
34212;SDS011;20477;51.390;8.102;2023-05-07T07:09:41;6.78;;;3.35;;
34212;SDS011;20477;51.390;8.102;2023-05-07T07:12:09;5.38;;;3.33;;
34212;SDS011;20477;51.390;8.102;2023-05-07T07:14:37;5.30;;;3.08;;
34212;SDS011;20477;51.390;8.102;2023-05-07T07:17:05;4.05;;;3.20;;
34212;SDS011;20477;51.390;8.102;2023-05-07T07:19:33;3.97;;;3.10;;
34212;SDS011;20477;51.390;8.102;2023-05-07T07:22:01;5.97;;;3.42;;
34212;SDS011;20477;51.390;8.102;2023-05-07T07:24:31;4.03;;;3.38;;
34212;SDS011;20477;51.390;8.102;2023-05-07T07:26:59;4.97;;;3.55;;
34212;SDS011;20477;51.390;8.102;2023-05-07T07:29:27;5.50;;;4.00;;
34212;SDS011;20477;51.390;8.102;2023-05-07T07:31:55;7.10;;;4.35;;
34212;SDS011;20477;51.390;8.102;2023-05-07T07:34:24;3.67;;;2.88;;
34212;SDS011;20477;51.390;8.102;2023-05-07T07:36:52;6.30;;;3.60;;
34212;SDS011;20477;51.390;8.102;2023-05-07T07:39:20;6.30;;;3.33;;
34212;SDS011;20477;51.390;8.102;2023-05-07T07:41:50;7.07;;;3.63;;
34212;SDS011;20477;51.390;8.102;2023-05-07T07:44:18;4.68;;;3.03;;
34212;SDS011;20477;51.390;8.102;2023-05-07T07:46:46;5.40;;;3.50;;
34212;SDS011;20477;51.390;8.102;2023-05-07T07:49:14;5.70;;;3.60;;
34212;SDS011;20477;51.390;8.102;2023-05-07T07:51:42;6.32;;;3.72;;
34212;SDS011;20477;51.390;8.102;2023-05-07T07:54:11;4.20;;;3.28;;
34212;SDS011;20477;51.390;8.102;2023-05-07T07:56:39;5.20;;;3.63;;
34212;SDS011;20477;51.390;8.102;2023-05-07T07:59:08;6.90;;;3.67;;
34212;SDS011;20477;51.390;8.102;2023-05-07T08:01:36;5.00;;;3.90;;
34212;SDS011;20477;51.390;8.102;2023-05-07T08:04:05;6.22;;;3.47;;
34212;SDS011;20477;51.390;8.102;2023-05-07T08:06:34;8.40;;;3.47;;
34212;SDS011;20477;51.390;8.102;2023-05-07T08:09:02;5.28;;;3.60;;
34212;SDS011;20477;51.390;8.102;2023-05-07T08:11:30;7.35;;;3.40;;
34212;SDS011;20477;51.390;8.102;2023-05-07T08:13:58;5.78;;;3.00;;
34212;SDS011;20477;51.390;8.102;2023-05-07T08:16:28;5.88;;;3.72;;
34212;SDS011;20477;51.390;8.102;2023-05-07T08:18:56;8.50;;;3.53;;
34212;SDS011;20477;51.390;8.102;2023-05-07T08:21:24;8.77;;;3.78;;
34212;SDS011;20477;51.390;8.102;2023-05-07T08:23:52;9.77;;;3.45;;
34212;SDS011;20477;51.390;8.102;2023-05-07T08:26:21;6.03;;;3.97;;
34212;SDS011;20477;51.390;8.102;2023-05-07T08:28:49;5.07;;;3.45;;
34212;SDS011;20477;51.390;8.102;2023-05-07T08:31:17;4.53;;;3.78;;
34212;SDS011;20477;51.390;8.102;2023-05-07T08:33:46;11.95;;;3.50;;
34212;SDS011;20477;51.390;8.102;2023-05-07T08:36:14;4.97;;;3.17;;
34212;SDS011;20477;51.390;8.102;2023-05-07T08:38:43;9.57;;;3.80;;
34212;SDS011;20477;51.390;8.102;2023-05-07T08:41:12;7.07;;;4.20;;
34212;SDS011;20477;51.390;8.102;2023-05-07T08:43:40;8.05;;;3.85;;
34212;SDS011;20477;51.390;8.102;2023-05-07T08:46:09;7.07;;;3.83;;
34212;SDS011;20477;51.390;8.102;2023-05-07T08:48:38;5.35;;;3.58;;
34212;SDS011;20477;51.390;8.102;2023-05-07T08:51:08;7.60;;;3.80;;
34212;SDS011;20477;51.390;8.102;2023-05-07T08:56:08;5.38;;;4.00;;
34212;SDS011;20477;51.390;8.102;2023-05-07T08:58:36;5.03;;;3.47;;
34212;SDS011;20477;51.390;8.102;2023-05-07T09:01:06;8.38;;;3.72;;
34212;SDS011;20477;51.390;8.102;2023-05-07T09:03:36;4.93;;;3.30;;
34212;SDS011;20477;51.390;8.102;2023-05-07T09:06:05;4.18;;;3.22;;
34212;SDS011;20477;51.390;8.102;2023-05-07T09:08:35;5.07;;;3.55;;
34212;SDS011;20477;51.390;8.102;2023-05-07T09:11:03;4.32;;;3.20;;
34212;SDS011;20477;51.390;8.102;2023-05-07T09:13:32;4.05;;;3.40;;
34212;SDS011;20477;51.390;8.102;2023-05-07T09:16:09;4.93;;;2.78;;
34212;SDS011;20477;51.390;8.102;2023-05-07T09:18:41;5.55;;;3.55;;
34212;SDS011;20477;51.390;8.102;2023-05-07T09:21:09;3.75;;;3.13;;
34212;SDS011;20477;51.390;8.102;2023-05-07T09:23:39;5.38;;;3.13;;
34212;SDS011;20477;51.390;8.102;2023-05-07T09:26:07;3.67;;;2.53;;
34212;SDS011;20477;51.390;8.102;2023-05-07T09:28:38;6.72;;;2.70;;
34212;SDS011;20477;51.390;8.102;2023-05-07T09:31:07;3.17;;;2.50;;
34212;SDS011;20477;51.390;8.102;2023-05-07T09:33:36;3.35;;;2.03;;
34212;SDS011;20477;51.390;8.102;2023-05-07T09:36:04;3.65;;;2.33;;
34212;SDS011;20477;51.390;8.102;2023-05-07T09:38:34;3.40;;;1.60;;
34212;SDS011;20477;51.390;8.102;2023-05-07T09:41:05;3.45;;;1.98;;
34212;SDS011;20477;51.390;8.102;2023-05-07T09:43:34;2.22;;;1.70;;
34212;SDS011;20477;51.390;8.102;2023-05-07T09:46:05;4.50;;;1.95;;
34212;SDS011;20477;51.390;8.102;2023-05-07T09:48:38;5.05;;;1.67;;
34212;SDS011;20477;51.390;8.102;2023-05-07T09:51:11;5.85;;;1.27;;
34212;SDS011;20477;51.390;8.102;2023-05-07T09:53:44;1.50;;;1.17;;
34212;SDS011;20477;51.390;8.102;2023-05-07T09:56:14;2.00;;;1.27;;
34212;SDS011;20477;51.390;8.102;2023-05-07T09:58:43;2.30;;;1.25;;
34212;SDS011;20477;51.390;8.102;2023-05-07T10:01:11;2.92;;;1.80;;
34212;SDS011;20477;51.390;8.102;2023-05-07T10:03:40;3.92;;;1.77;;
34212;SDS011;20477;51.390;8.102;2023-05-07T10:06:09;3.95;;;1.38;;
34212;SDS011;20477;51.390;8.102;2023-05-07T10:08:38;2.70;;;1.58;;
34212;SDS011;20477;51.390;8.102;2023-05-07T10:11:06;3.20;;;1.33;;
34212;SDS011;20477;51.390;8.102;2023-05-07T10:13:36;3.67;;;1.40;;
34212;SDS011;20477;51.390;8.102;2023-05-07T10:16:04;4.18;;;1.50;;
34212;SDS011;20477;51.390;8.102;2023-05-07T10:18:33;2.03;;;1.58;;
34212;SDS011;20477;51.390;8.102;2023-05-07T10:21:02;2.42;;;1.83;;
34212;SDS011;20477;51.390;8.102;2023-05-07T10:23:35;3.50;;;2.03;;
34212;SDS011;20477;51.390;8.102;2023-05-07T10:26:04;2.33;;;1.60;;
34212;SDS011;20477;51.390;8.102;2023-05-07T10:28:36;1.67;;;1.15;;
34212;SDS011;20477;51.390;8.102;2023-05-07T10:31:13;2.97;;;1.15;;
34212;SDS011;20477;51.390;8.102;2023-05-07T10:33:46;5.93;;;1.52;;
34212;SDS011;20477;51.390;8.102;2023-05-07T10:36:17;7.00;;;1.45;;
34212;SDS011;20477;51.390;8.102;2023-05-07T10:38:45;3.83;;;1.67;;
34212;SDS011;20477;51.390;8.102;2023-05-07T10:41:13;2.78;;;1.40;;
34212;SDS011;20477;51.390;8.102;2023-05-07T10:43:44;3.28;;;1.50;;
34212;SDS011;20477;51.390;8.102;2023-05-07T10:46:14;3.60;;;1.90;;
34212;SDS011;20477;51.390;8.102;2023-05-07T10:51:39;3.03;;;1.40;;
34212;SDS011;20477;51.390;8.102;2023-05-07T10:54:20;6.57;;;1.30;;
34212;SDS011;20477;51.390;8.102;2023-05-07T10:56:50;3.00;;;1.30;;
34212;SDS011;20477;51.390;8.102;2023-05-07T10:59:32;3.13;;;1.50;;
34212;SDS011;20477;51.390;8.102;2023-05-07T11:02:07;2.75;;;1.55;;
34212;SDS011;20477;51.390;8.102;2023-05-07T11:04:37;1.70;;;1.60;;
34212;SDS011;20477;51.390;8.102;2023-05-07T11:07:26;6.57;;;1.40;;
34212;SDS011;20477;51.390;8.102;2023-05-07T11:09:56;6.20;;;1.67;;
34212;SDS011;20477;51.390;8.102;2023-05-07T11:12:46;3.37;;;1.20;;
34212;SDS011;20477;51.390;8.102;2023-05-07T11:15:35;6.10;;;1.42;;
34212;SDS011;20477;51.390;8.102;2023-05-07T11:18:05;3.00;;;1.50;;
34212;SDS011;20477;51.390;8.102;2023-05-07T11:20:50;3.63;;;1.40;;
34212;SDS011;20477;51.390;8.102;2023-05-07T11:26:29;3.65;;;1.77;;
34212;SDS011;20477;51.390;8.102;2023-05-07T11:28:58;4.78;;;1.60;;
34212;SDS011;20477;51.390;8.102;2023-05-07T11:31:29;4.60;;;1.88;;
34212;SDS011;20477;51.390;8.102;2023-05-07T11:33:58;2.88;;;1.83;;
34212;SDS011;20477;51.390;8.102;2023-05-07T11:36:31;6.35;;;2.13;;
34212;SDS011;20477;51.390;8.102;2023-05-07T11:39:00;3.78;;;1.63;;
34212;SDS011;20477;51.390;8.102;2023-05-07T11:41:34;3.55;;;2.00;;
34212;SDS011;20477;51.390;8.102;2023-05-07T11:44:03;6.28;;;2.35;;
34212;SDS011;20477;51.390;8.102;2023-05-07T11:46:33;4.32;;;1.85;;
34212;SDS011;20477;51.390;8.102;2023-05-07T11:49:01;5.68;;;1.85;;
34212;SDS011;20477;51.390;8.102;2023-05-07T11:51:29;3.75;;;1.50;;
34212;SDS011;20477;51.390;8.102;2023-05-07T11:53:58;4.57;;;1.90;;
34212;SDS011;20477;51.390;8.102;2023-05-07T11:56:26;7.18;;;1.63;;
34212;SDS011;20477;51.390;8.102;2023-05-07T11:58:54;3.30;;;1.75;;
34212;SDS011;20477;51.390;8.102;2023-05-07T12:01:22;2.85;;;1.50;;
34212;SDS011;20477;51.390;8.102;2023-05-07T12:03:51;3.10;;;1.92;;
34212;SDS011;20477;51.390;8.102;2023-05-07T12:06:20;3.50;;;1.60;;
34212;SDS011;20477;51.390;8.102;2023-05-07T12:08:48;2.97;;;1.80;;
34212;SDS011;20477;51.390;8.102;2023-05-07T12:11:18;5.55;;;2.50;;
34212;SDS011;20477;51.390;8.102;2023-05-07T12:13:51;3.70;;;2.40;;
34212;SDS011;20477;51.390;8.102;2023-05-07T12:16:24;5.07;;;3.60;;
34212;SDS011;20477;51.390;8.102;2023-05-07T12:18:55;5.28;;;3.10;;
34212;SDS011;20477;51.390;8.102;2023-05-07T12:21:25;6.20;;;3.97;;
34212;SDS011;20477;51.390;8.102;2023-05-07T12:23:53;7.47;;;4.72;;
34212;SDS011;20477;51.390;8.102;2023-05-07T12:26:21;5.38;;;4.80;;
34212;SDS011;20477;51.390;8.102;2023-05-07T12:28:50;4.18;;;3.33;;
34212;SDS011;20477;51.390;8.102;2023-05-07T12:31:18;5.20;;;3.92;;
34212;SDS011;20477;51.390;8.102;2023-05-07T12:33:46;7.53;;;3.55;;
34212;SDS011;20477;51.390;8.102;2023-05-07T12:36:16;5.65;;;4.25;;
34212;SDS011;20477;51.390;8.102;2023-05-07T12:38:44;6.57;;;3.80;;
34212;SDS011;20477;51.390;8.102;2023-05-07T12:41:12;5.20;;;4.13;;
34212;SDS011;20477;51.390;8.102;2023-05-07T12:43:40;6.25;;;4.18;;
34212;SDS011;20477;51.390;8.102;2023-05-07T12:46:11;7.97;;;4.78;;
34212;SDS011;20477;51.390;8.102;2023-05-07T12:48:43;7.47;;;4.45;;
34212;SDS011;20477;51.390;8.102;2023-05-07T12:51:12;4.35;;;3.95;;
34212;SDS011;20477;51.390;8.102;2023-05-07T12:53:43;8.45;;;3.45;;
34212;SDS011;20477;51.390;8.102;2023-05-07T12:56:11;7.05;;;3.85;;
34212;SDS011;20477;51.390;8.102;2023-05-07T12:58:39;10.48;;;3.60;;
34212;SDS011;20477;51.390;8.102;2023-05-07T13:01:07;6.03;;;3.55;;
34212;SDS011;20477;51.390;8.102;2023-05-07T13:03:37;4.00;;;3.20;;
34212;SDS011;20477;51.390;8.102;2023-05-07T13:06:06;4.65;;;3.30;;
34212;SDS011;20477;51.390;8.102;2023-05-07T13:08:36;4.55;;;3.03;;
34212;SDS011;20477;51.390;8.102;2023-05-07T13:11:08;3.25;;;2.50;;
34212;SDS011;20477;51.390;8.102;2023-05-07T13:13:37;3.47;;;2.78;;
34212;SDS011;20477;51.390;8.102;2023-05-07T13:16:07;4.05;;;2.40;;
34212;SDS011;20477;51.390;8.102;2023-05-07T13:18:37;4.15;;;2.40;;
34212;SDS011;20477;51.390;8.102;2023-05-07T13:21:06;4.40;;;2.10;;
34212;SDS011;20477;51.390;8.102;2023-05-07T13:23:35;3.58;;;2.42;;
34212;SDS011;20477;51.390;8.102;2023-05-07T13:26:05;4.00;;;2.00;;
34212;SDS011;20477;51.390;8.102;2023-05-07T13:28:53;4.80;;;2.40;;
34212;SDS011;20477;51.390;8.102;2023-05-07T13:31:21;3.40;;;2.28;;
34212;SDS011;20477;51.390;8.102;2023-05-07T13:33:49;5.18;;;2.03;;
34212;SDS011;20477;51.390;8.102;2023-05-07T13:36:18;6.82;;;2.58;;
34212;SDS011;20477;51.390;8.102;2023-05-07T13:38:47;4.80;;;2.30;;
34212;SDS011;20477;51.390;8.102;2023-05-07T13:41:15;6.13;;;2.05;;
34212;SDS011;20477;51.390;8.102;2023-05-07T13:43:43;2.92;;;2.08;;
34212;SDS011;20477;51.390;8.102;2023-05-07T13:46:12;4.05;;;2.28;;
34212;SDS011;20477;51.390;8.102;2023-05-07T13:48:41;4.68;;;2.25;;
34212;SDS011;20477;51.390;8.102;2023-05-07T13:51:09;5.93;;;2.20;;
34212;SDS011;20477;51.390;8.102;2023-05-07T13:53:37;3.83;;;2.65;;
34212;SDS011;20477;51.390;8.102;2023-05-07T13:56:05;4.60;;;2.47;;
34212;SDS011;20477;51.390;8.102;2023-05-07T13:58:33;6.15;;;2.53;;
34212;SDS011;20477;51.390;8.102;2023-05-07T14:01:15;4.18;;;2.80;;
34212;SDS011;20477;51.390;8.102;2023-05-07T14:03:44;5.75;;;3.13;;
34212;SDS011;20477;51.390;8.102;2023-05-07T14:06:12;7.25;;;3.10;;
34212;SDS011;20477;51.390;8.102;2023-05-07T14:08:40;3.35;;;2.47;;
34212;SDS011;20477;51.390;8.102;2023-05-07T14:11:08;4.28;;;2.00;;
34212;SDS011;20477;51.390;8.102;2023-05-07T14:13:37;3.25;;;2.20;;
34212;SDS011;20477;51.390;8.102;2023-05-07T14:16:05;5.97;;;2.05;;
34212;SDS011;20477;51.390;8.102;2023-05-07T14:18:35;3.75;;;2.65;;
34212;SDS011;20477;51.390;8.102;2023-05-07T14:21:04;5.00;;;2.65;;
34212;SDS011;20477;51.390;8.102;2023-05-07T14:23:33;3.35;;;2.63;;
34212;SDS011;20477;51.390;8.102;2023-05-07T14:26:02;6.60;;;2.70;;
34212;SDS011;20477;51.390;8.102;2023-05-07T14:28:30;2.85;;;2.45;;
34212;SDS011;20477;51.390;8.102;2023-05-07T14:30:58;4.40;;;3.13;;
34212;SDS011;20477;51.390;8.102;2023-05-07T14:33:27;7.45;;;2.97;;
34212;SDS011;20477;51.390;8.102;2023-05-07T14:35:56;4.10;;;2.67;;
34212;SDS011;20477;51.390;8.102;2023-05-07T14:38:24;4.75;;;2.90;;
34212;SDS011;20477;51.390;8.102;2023-05-07T14:40:52;4.45;;;3.25;;
34212;SDS011;20477;51.390;8.102;2023-05-07T14:43:22;8.30;;;3.38;;
34212;SDS011;20477;51.390;8.102;2023-05-07T14:45:50;4.78;;;2.97;;
34212;SDS011;20477;51.390;8.102;2023-05-07T14:48:19;4.15;;;3.22;;
34212;SDS011;20477;51.390;8.102;2023-05-07T14:50:47;6.97;;;2.92;;
34212;SDS011;20477;51.390;8.102;2023-05-07T14:53:17;3.72;;;2.83;;
34212;SDS011;20477;51.390;8.102;2023-05-07T14:55:46;9.00;;;3.80;;
34212;SDS011;20477;51.390;8.102;2023-05-07T14:58:15;4.32;;;3.85;;
34212;SDS011;20477;51.390;8.102;2023-05-07T15:00:43;12.00;;;3.95;;
34212;SDS011;20477;51.390;8.102;2023-05-07T15:03:11;6.93;;;4.72;;
34212;SDS011;20477;51.390;8.102;2023-05-07T15:05:40;12.40;;;5.38;;
34212;SDS011;20477;51.390;8.102;2023-05-07T15:08:08;8.70;;;5.75;;